createdAt,value
2023-04-16T00:01:11.107Z,10.38
2023-04-16T00:03:38.995Z,10.40
2023-04-16T00:06:07.155Z,10.42
2023-04-16T00:08:35.600Z,10.41
2023-04-16T00:11:04.684Z,10.43
2023-04-16T00:13:32.410Z,10.43
2023-04-16T00:16:00.179Z,10.43
2023-04-16T00:18:27.860Z,10.43
2023-04-16T00:20:55.567Z,10.42
2023-04-16T00:23:25.150Z,10.40
2023-04-16T00:25:53.714Z,10.41
2023-04-16T00:28:22.783Z,10.41
2023-04-16T00:30:50.524Z,10.41
2023-04-16T00:33:18.262Z,10.42
2023-04-16T00:35:47.039Z,10.42
2023-04-16T00:38:15.048Z,10.43
2023-04-16T00:40:42.695Z,10.41
2023-04-16T00:43:10.510Z,10.39
2023-04-16T00:45:39.660Z,10.41
2023-04-16T00:48:07.412Z,10.40
2023-04-16T00:50:35.437Z,10.41
2023-04-16T00:53:04.026Z,10.44
2023-04-16T00:55:32.314Z,10.48
2023-04-16T00:58:00.124Z,10.48
2023-04-16T01:00:27.862Z,10.49
2023-04-16T01:02:57.160Z,10.51
2023-04-16T01:05:24.938Z,10.51
2023-04-16T01:07:53.394Z,10.53
2023-04-16T01:10:21.345Z,10.52
2023-04-16T01:12:49.043Z,10.53
2023-04-16T01:15:16.747Z,10.51
2023-04-16T01:17:45.783Z,10.51
2023-04-16T01:20:14.992Z,10.54
2023-04-16T01:22:44.124Z,10.56
2023-04-16T01:25:15.718Z,10.55
2023-04-16T01:27:43.447Z,10.54
2023-04-16T01:30:11.730Z,10.56
2023-04-16T01:32:39.795Z,10.58
2023-04-16T01:35:07.798Z,10.60
2023-04-16T01:37:35.455Z,10.57
2023-04-16T01:40:04.873Z,10.62
2023-04-16T01:42:33.261Z,10.61
2023-04-16T01:45:00.995Z,10.62
2023-04-16T01:47:28.704Z,10.63
2023-04-16T01:49:56.471Z,10.60
2023-04-16T01:52:24.276Z,10.64
2023-04-16T01:54:51.964Z,10.64
2023-04-16T01:57:20.996Z,10.61
2023-04-16T01:59:48.729Z,10.61
2023-04-16T02:02:17.191Z,10.60
2023-04-16T02:04:46.107Z,10.60
2023-04-16T02:07:14.040Z,10.57
2023-04-16T02:09:42.205Z,10.56
2023-04-16T02:12:11.420Z,10.54
2023-04-16T02:14:40.542Z,10.51
2023-04-16T02:17:08.244Z,10.53
2023-04-16T02:19:36.028Z,10.56
2023-04-16T02:22:03.879Z,10.58
2023-04-16T02:24:31.514Z,10.60
2023-04-16T02:26:59.232Z,10.60
2023-04-16T02:29:26.879Z,10.57
2023-04-16T02:31:56.035Z,10.56
2023-04-16T02:34:23.694Z,10.55
2023-04-16T02:36:51.443Z,10.51
2023-04-16T02:39:19.398Z,10.52
2023-04-16T02:41:47.053Z,10.50
2023-04-16T02:44:14.844Z,10.51
2023-04-16T02:46:42.556Z,10.52
2023-04-16T02:49:11.788Z,10.52
2023-04-16T02:51:39.595Z,10.46
2023-04-16T02:54:07.338Z,10.47
2023-04-16T02:56:35.013Z,10.45
2023-04-16T02:59:02.800Z,10.43
2023-04-16T03:01:30.477Z,10.46
2023-04-16T03:03:58.327Z,10.47
2023-04-16T03:06:27.544Z,10.44
2023-04-16T03:08:55.189Z,10.48
2023-04-16T03:11:23.677Z,10.48
2023-04-16T03:13:51.406Z,10.49
2023-04-16T03:16:19.151Z,10.52
2023-04-16T03:18:46.831Z,10.51
2023-04-16T03:21:14.509Z,10.50
2023-04-16T03:23:43.625Z,10.49
2023-04-16T03:26:11.342Z,10.51
2023-04-16T03:28:39.018Z,10.51
2023-04-16T03:31:06.711Z,10.51
2023-04-16T03:33:34.340Z,10.52
2023-04-16T03:36:01.983Z,10.51
2023-04-16T03:38:29.715Z,10.56
2023-04-16T03:40:58.827Z,10.55
2023-04-16T03:43:26.571Z,10.53
2023-04-16T03:45:54.242Z,10.54
2023-04-16T03:48:21.971Z,10.52
2023-04-16T03:50:49.678Z,10.53
2023-04-16T03:53:17.358Z,10.49
2023-04-16T03:55:45.094Z,10.51
2023-04-16T03:58:14.137Z,10.54
2023-04-16T04:00:43.630Z,10.56
2023-04-16T04:03:11.534Z,10.58
2023-04-16T04:05:40.467Z,10.61
2023-04-16T04:08:08.642Z,10.60
2023-04-16T04:10:37.348Z,10.58
2023-04-16T04:13:06.236Z,10.61
2023-04-16T04:15:35.376Z,10.61
2023-04-16T04:18:03.127Z,10.58
2023-04-16T04:20:30.849Z,10.60
2023-04-16T04:22:58.886Z,10.62
2023-04-16T04:25:26.924Z,10.61
2023-04-16T04:27:54.684Z,10.62
2023-04-16T04:30:22.422Z,10.62
2023-04-16T04:32:51.639Z,10.63
2023-04-16T04:35:19.399Z,10.63
2023-04-16T04:37:47.076Z,10.57
2023-04-16T04:40:14.877Z,10.58
2023-04-16T04:42:42.571Z,10.58
2023-04-16T04:45:11.535Z,10.58
2023-04-16T04:47:39.339Z,10.54
2023-04-16T04:50:09.668Z,10.54
2023-04-16T04:52:37.504Z,10.54
2023-04-16T04:55:05.712Z,10.50
2023-04-16T04:57:33.445Z,10.51
2023-04-16T05:00:03.355Z,10.53
2023-04-16T05:02:31.206Z,10.55
2023-04-16T05:04:59.053Z,10.58
2023-04-16T05:07:28.182Z,10.60
2023-04-16T05:09:56.021Z,10.62
2023-04-16T05:12:23.732Z,10.58
2023-04-16T05:14:51.395Z,10.56
2023-04-16T05:17:19.126Z,10.56
2023-04-16T05:19:46.880Z,10.51
2023-04-16T05:22:14.501Z,10.54
2023-04-16T05:24:43.562Z,10.56
2023-04-16T05:27:11.300Z,10.61
2023-04-16T05:29:39.006Z,10.63
2023-04-16T05:32:06.634Z,10.65
2023-04-16T05:34:34.347Z,10.66
2023-04-16T05:37:02.203Z,10.65
2023-04-16T05:39:29.855Z,10.67
2023-04-16T05:41:58.968Z,10.68
2023-04-16T05:44:27.067Z,10.71
2023-04-16T05:46:54.788Z,10.73
2023-04-16T05:49:22.552Z,10.69
2023-04-16T05:51:51.004Z,10.72
2023-04-16T05:54:18.886Z,10.74
2023-04-16T05:56:46.651Z,10.74
2023-04-16T05:59:15.658Z,10.78
2023-04-16T06:01:43.369Z,10.77
2023-04-16T06:04:11.256Z,10.73
2023-04-16T06:06:40.125Z,10.72
2023-04-16T06:09:07.964Z,10.74
2023-04-16T06:11:36.552Z,10.74
2023-04-16T06:14:04.208Z,10.73
2023-04-16T06:16:33.378Z,10.74
2023-04-16T06:19:01.238Z,10.73
2023-04-16T06:21:29.617Z,10.73
2023-04-16T06:23:57.329Z,10.76
2023-04-16T06:26:25.029Z,10.76
2023-04-16T06:28:52.690Z,10.75
2023-04-16T06:31:20.726Z,10.75
2023-04-16T06:33:49.964Z,10.77
2023-04-16T06:36:17.804Z,10.77
2023-04-16T06:38:45.759Z,10.77
2023-04-16T06:41:14.305Z,10.79
2023-04-16T06:43:41.986Z,10.81
2023-04-16T06:46:09.696Z,10.84
2023-04-16T06:48:37.397Z,10.89
2023-04-16T06:51:06.609Z,10.93
2023-04-16T06:53:34.301Z,10.93
2023-04-16T06:56:01.949Z,10.90
2023-04-16T06:58:29.678Z,10.90
2023-04-16T07:00:57.339Z,10.89
2023-04-16T07:03:25.238Z,10.90
2023-04-16T07:05:52.976Z,10.90
2023-04-16T07:08:22.057Z,10.95
2023-04-16T07:10:49.770Z,10.98
2023-04-16T07:13:18.531Z,11.00
2023-04-16T07:15:46.148Z,10.98
2023-04-16T07:18:13.903Z,10.96
2023-04-16T07:20:41.672Z,10.94
2023-04-16T07:23:09.354Z,10.98
2023-04-16T07:25:38.454Z,11.01
2023-04-16T07:28:06.049Z,11.03
2023-04-16T07:30:34.655Z,11.06
2023-04-16T07:33:02.542Z,11.09
2023-04-16T07:35:30.795Z,11.09
2023-04-16T07:37:58.452Z,11.12
2023-04-16T07:40:26.264Z,11.10
2023-04-16T07:42:56.091Z,11.11
2023-04-16T07:45:24.965Z,11.14
2023-04-16T07:47:52.673Z,11.18
2023-04-16T07:50:20.414Z,11.23
2023-04-16T07:52:48.100Z,11.29
2023-04-16T07:55:15.847Z,11.31
2023-04-16T07:57:43.610Z,11.32
2023-04-16T08:00:13.635Z,11.31
2023-04-16T08:02:41.616Z,11.31
2023-04-16T08:05:09.633Z,11.34
2023-04-16T08:07:37.536Z,11.28
2023-04-16T08:10:06.330Z,11.42
2023-04-16T08:12:34.059Z,11.46
2023-04-16T08:15:01.775Z,11.47
2023-04-16T08:17:30.993Z,11.55
2023-04-16T08:19:58.694Z,11.61
2023-04-16T08:22:26.351Z,11.70
2023-04-16T08:24:54.087Z,11.68
2023-04-16T08:27:21.773Z,11.70
2023-04-16T08:29:49.599Z,11.75
2023-04-16T08:32:17.261Z,11.78
2023-04-16T08:34:46.471Z,11.75
2023-04-16T08:37:14.165Z,11.85
2023-04-16T08:39:41.911Z,11.90
2023-04-16T08:42:14.159Z,11.88
2023-04-16T08:44:46.427Z,11.88
2023-04-16T08:47:16.753Z,11.88
2023-04-16T08:49:46.732Z,11.89
2023-04-16T08:52:17.171Z,11.88
2023-04-16T08:54:56.533Z,11.80
2023-04-16T08:57:25.508Z,11.87
2023-04-16T08:59:53.334Z,11.90
2023-04-16T09:02:21.246Z,11.95
2023-04-16T09:04:51.752Z,12.01
2023-04-16T09:07:20.868Z,12.03
2023-04-16T09:09:49.753Z,12.06
2023-04-16T09:12:18.613Z,12.07
2023-04-16T09:14:49.705Z,12.14
2023-04-16T09:17:17.908Z,12.19
2023-04-16T09:19:45.769Z,12.22
2023-04-16T09:22:14.910Z,12.25
2023-04-16T09:24:42.936Z,12.31
2023-04-16T09:27:11.087Z,12.36
2023-04-16T09:29:40.149Z,12.40
2023-04-16T09:32:09.692Z,12.46
2023-04-16T09:34:55.762Z,12.47
2023-04-16T09:37:25.825Z,12.51
2023-04-16T09:39:58.295Z,12.52
2023-04-16T09:42:27.395Z,12.57
2023-04-16T09:44:57.810Z,12.63
2023-04-16T09:47:28.388Z,12.68
2023-04-16T09:50:00.215Z,12.72
2023-04-16T09:52:29.312Z,12.76
2023-04-16T09:54:56.994Z,12.79
2023-04-16T09:57:26.143Z,12.85
2023-04-16T09:59:54.444Z,12.87
2023-04-16T10:02:23.288Z,12.88
2023-04-16T10:04:52.078Z,12.91
2023-04-16T10:07:20.612Z,12.96
2023-04-16T10:09:50.570Z,13.03
2023-04-16T10:12:18.292Z,13.07
2023-04-16T10:14:48.375Z,13.12
2023-04-16T10:17:17.906Z,13.14
2023-04-16T10:19:45.804Z,13.14
2023-04-16T10:22:13.808Z,13.20
2023-04-16T10:24:42.320Z,13.24
2023-04-16T10:27:12.316Z,13.30
2023-04-16T10:29:40.093Z,13.40
2023-04-16T10:32:07.866Z,13.46
2023-04-16T10:34:36.430Z,13.47
2023-04-16T10:37:04.195Z,13.51
2023-04-16T10:39:33.000Z,13.52
2023-04-16T10:42:12.988Z,13.55
2023-04-16T10:44:44.290Z,13.58
2023-04-16T10:47:13.880Z,13.64
2023-04-16T10:49:43.941Z,13.64
2023-04-16T10:52:13.148Z,13.66
2023-04-16T10:54:41.328Z,13.69
2023-04-16T10:57:15.999Z,13.73
2023-04-16T10:59:44.873Z,13.74
2023-04-16T11:02:15.159Z,13.74
2023-04-16T11:04:44.321Z,13.84
2023-04-16T11:07:20.606Z,13.93
2023-04-16T11:09:55.110Z,13.99
2023-04-16T11:12:27.210Z,14.01
2023-04-16T11:14:56.025Z,14.03
2023-04-16T11:17:23.751Z,14.02
2023-04-16T11:19:53.703Z,14.02
2023-04-16T11:22:21.662Z,14.03
2023-04-16T11:24:55.341Z,14.07
2023-04-16T11:27:24.734Z,14.10
2023-04-16T11:29:59.952Z,14.13
2023-04-16T11:32:27.706Z,14.19
2023-04-16T11:34:55.431Z,14.33
2023-04-16T11:37:28.045Z,14.39
2023-04-16T11:39:55.734Z,14.41
2023-04-16T11:42:24.790Z,14.41
2023-04-16T11:44:54.391Z,14.39
2023-04-16T11:47:22.315Z,14.40
2023-04-16T11:49:50.200Z,14.49
2023-04-16T11:52:28.302Z,14.59
2023-04-16T11:54:56.446Z,14.66
2023-04-16T11:57:29.889Z,14.70
2023-04-16T12:00:03.050Z,14.71
2023-04-16T12:02:39.033Z,14.80
2023-04-16T12:05:08.495Z,14.89
2023-04-16T12:07:45.939Z,14.89
2023-04-16T12:10:14.078Z,14.97
2023-04-16T12:12:43.135Z,15.07
2023-04-16T12:15:11.180Z,15.17
2023-04-16T12:17:39.349Z,15.29
2023-04-16T12:20:11.094Z,15.36
2023-04-16T12:22:40.804Z,15.26
2023-04-16T12:25:11.882Z,15.41
2023-04-16T12:27:51.336Z,15.46
2023-04-16T12:30:23.398Z,15.55
2023-04-16T12:32:52.974Z,15.63
2023-04-16T12:35:35.625Z,15.71
2023-04-16T12:38:03.576Z,15.82
2023-04-16T12:40:31.334Z,15.88
2023-04-16T12:43:00.397Z,15.92
2023-04-16T12:45:28.090Z,15.85
2023-04-16T12:47:55.938Z,15.78
2023-04-16T12:50:23.819Z,15.84
2023-04-16T12:52:51.589Z,15.87
2023-04-16T12:55:19.433Z,15.95
2023-04-16T12:57:48.884Z,15.98
2023-04-16T13:00:18.545Z,15.95
2023-04-16T13:02:46.414Z,15.92
2023-04-16T13:05:16.273Z,15.85
2023-04-16T13:07:44.196Z,15.80
2023-04-16T13:10:11.845Z,15.76
2023-04-16T13:12:39.602Z,15.74
2023-04-16T13:15:08.374Z,15.78
2023-04-16T13:17:37.526Z,15.76
2023-04-16T13:20:05.868Z,15.72
2023-04-16T13:22:33.524Z,15.70
2023-04-16T13:25:01.153Z,15.66
2023-04-16T13:27:28.754Z,15.58
2023-04-16T13:29:56.581Z,15.53
2023-04-16T13:32:24.400Z,15.47
2023-04-16T13:34:53.463Z,15.46
2023-04-16T13:37:21.135Z,15.47
2023-04-16T13:39:48.823Z,15.50
2023-04-16T13:42:16.844Z,15.52
2023-04-16T13:44:46.695Z,15.58
2023-04-16T13:47:14.324Z,15.63
2023-04-16T13:49:42.043Z,15.67
2023-04-16T13:52:11.149Z,15.68
2023-04-16T13:54:38.864Z,15.67
2023-04-16T13:57:06.619Z,15.67
2023-04-16T13:59:34.329Z,15.66
2023-04-16T14:02:02.125Z,15.61
2023-04-16T14:04:29.957Z,15.59
2023-04-16T14:06:57.690Z,15.58
2023-04-16T14:09:27.308Z,15.54
2023-04-16T14:11:55.142Z,15.45
2023-04-16T14:14:22.881Z,15.37
2023-04-16T14:16:50.749Z,15.30
2023-04-16T14:19:18.607Z,15.21
2023-04-16T14:21:46.347Z,15.13
2023-04-16T14:24:14.060Z,15.09
2023-04-16T14:26:44.058Z,15.02
2023-04-16T14:29:11.975Z,14.91
2023-04-16T14:31:39.819Z,14.83
2023-04-16T14:34:07.502Z,14.72
2023-04-16T14:37:38.532Z,14.61
2023-04-16T14:40:08.956Z,14.47
2023-04-16T14:42:37.554Z,14.51
2023-04-16T14:45:06.883Z,14.50
2023-04-16T14:47:34.929Z,14.48
2023-04-16T14:50:03.247Z,14.54
2023-04-16T14:52:32.121Z,14.51
2023-04-16T14:55:01.173Z,14.53
2023-04-16T14:57:28.812Z,14.50
2023-04-16T14:59:56.583Z,14.49
2023-04-16T15:02:24.451Z,14.48
2023-04-16T15:04:52.214Z,14.50
2023-04-16T15:07:19.949Z,14.49
2023-04-16T15:09:47.610Z,14.50
2023-04-16T15:12:19.024Z,14.49
2023-04-16T15:14:46.829Z,14.48
2023-04-16T15:17:14.491Z,14.50
2023-04-16T15:19:42.239Z,14.53
2023-04-16T15:22:09.905Z,14.56
2023-04-16T15:24:37.677Z,14.59
2023-04-16T15:27:07.010Z,14.58
2023-04-16T15:29:36.775Z,14.59
2023-04-16T15:32:04.603Z,14.61
2023-04-16T15:34:32.293Z,14.64
2023-04-16T15:36:59.937Z,14.63
2023-04-16T15:39:27.648Z,14.62
2023-04-16T15:42:01.257Z,14.64
2023-04-16T15:44:31.755Z,14.66
2023-04-16T15:47:01.223Z,14.65
2023-04-16T15:49:29.001Z,14.67
2023-04-16T15:51:56.726Z,14.65
2023-04-16T15:54:24.714Z,14.64
2023-04-16T15:56:52.493Z,14.61
2023-04-16T15:59:20.181Z,14.60
2023-04-16T16:01:47.923Z,14.60
2023-04-16T16:04:17.166Z,14.60
2023-04-16T16:06:45.105Z,14.59
2023-04-16T16:09:12.968Z,14.62
2023-04-16T16:11:41.685Z,14.58
2023-04-16T16:14:09.355Z,14.58
2023-04-16T16:16:37.114Z,14.57
2023-04-16T16:19:04.773Z,14.57
2023-04-16T16:21:33.874Z,14.58
2023-04-16T16:24:01.749Z,14.59
2023-04-16T16:26:29.448Z,14.58
2023-04-16T16:28:58.066Z,14.56
2023-04-16T16:31:25.989Z,14.53
2023-04-16T16:33:53.756Z,14.53
2023-04-16T16:36:21.411Z,14.50
2023-04-16T16:38:50.551Z,14.51
2023-04-16T16:41:18.289Z,14.50
2023-04-16T16:43:46.022Z,14.48
2023-04-16T16:46:13.758Z,14.49
2023-04-16T16:48:41.459Z,14.50
2023-04-16T16:51:11.039Z,14.50
2023-04-16T16:53:38.704Z,14.52
2023-04-16T16:56:07.991Z,14.60
2023-04-16T16:58:35.788Z,14.66
2023-04-16T17:01:03.795Z,14.72
2023-04-16T17:03:31.602Z,14.80
2023-04-16T17:06:00.232Z,14.78
2023-04-16T17:08:28.912Z,14.91
2023-04-16T17:10:56.606Z,14.97
2023-04-16T17:13:25.757Z,14.96
2023-04-16T17:15:53.476Z,15.04
2023-04-16T17:18:21.114Z,15.09
2023-04-16T17:20:48.800Z,15.13
2023-04-16T17:23:16.533Z,15.13
2023-04-16T17:25:44.234Z,15.11
2023-04-16T17:28:11.931Z,15.10
2023-04-16T17:30:40.988Z,15.10
2023-04-16T17:33:08.655Z,15.09
2023-04-16T17:35:36.457Z,14.98
2023-04-16T17:38:04.176Z,15.04
2023-04-16T17:40:31.873Z,14.98
2023-04-16T17:42:59.550Z,14.93
2023-04-16T17:45:27.440Z,14.86
2023-04-16T17:47:56.519Z,14.83
2023-04-16T17:50:24.539Z,14.80
2023-04-16T17:52:52.211Z,14.74
2023-04-16T17:55:19.901Z,14.67
2023-04-16T17:57:47.893Z,14.64
2023-04-16T18:00:16.293Z,14.61
2023-04-16T18:02:44.152Z,14.60
2023-04-16T18:05:13.471Z,14.60
2023-04-16T18:07:41.299Z,14.58
2023-04-16T18:10:10.677Z,14.56
2023-04-16T18:12:38.431Z,14.53
2023-04-16T18:15:07.114Z,14.53
2023-04-16T18:17:34.844Z,14.54
2023-04-16T18:20:03.723Z,14.53
2023-04-16T18:22:32.855Z,14.52
2023-04-16T18:25:00.576Z,14.48
2023-04-16T18:27:28.824Z,14.44
2023-04-16T18:29:56.689Z,14.42
2023-04-16T18:32:24.597Z,14.42
2023-04-16T18:34:52.745Z,14.41
2023-04-16T18:37:20.666Z,14.38
2023-04-16T18:39:49.863Z,14.40
2023-04-16T18:42:17.657Z,14.35
2023-04-16T18:44:45.322Z,14.36
2023-04-16T18:47:12.959Z,14.33
2023-04-16T18:49:40.823Z,14.33
2023-04-16T18:52:08.754Z,14.33
2023-04-16T18:54:36.551Z,14.31
2023-04-16T18:57:05.780Z,14.28
2023-04-16T18:59:33.775Z,14.27
2023-04-16T19:02:01.595Z,14.24
2023-04-16T19:04:29.481Z,14.18
2023-04-16T19:06:57.179Z,14.10
2023-04-16T19:09:26.365Z,14.04
2023-04-16T19:11:54.112Z,13.95
2023-04-16T19:14:23.355Z,13.94
2023-04-16T19:16:50.985Z,13.88
2023-04-16T19:19:18.664Z,13.84
2023-04-16T19:21:46.464Z,13.80
2023-04-16T19:24:14.148Z,13.78
2023-04-16T19:26:41.960Z,13.72
2023-04-16T19:29:09.950Z,13.72
2023-04-16T19:31:39.334Z,13.69
2023-04-16T19:34:07.433Z,13.68
2023-04-16T19:36:35.128Z,13.66
2023-04-16T19:39:03.734Z,13.63
2023-04-16T19:41:31.488Z,13.63
2023-04-16T19:43:59.202Z,13.64
2023-04-16T19:46:26.881Z,13.64
2023-04-16T19:48:56.799Z,13.60
2023-04-16T19:51:24.513Z,13.61
2023-04-16T19:53:52.655Z,13.58
2023-04-16T19:56:20.552Z,13.56
2023-04-16T19:58:48.321Z,13.52
2023-04-16T20:01:16.333Z,13.46
2023-04-16T20:03:44.215Z,13.41
2023-04-16T20:06:13.514Z,13.34
2023-04-16T20:08:41.476Z,13.29
2023-04-16T20:11:09.916Z,13.22
2023-04-16T20:13:38.839Z,13.19
2023-04-16T20:16:09.282Z,13.19
2023-04-16T20:18:41.282Z,13.16
2023-04-16T20:21:09.009Z,13.09
2023-04-16T20:23:38.192Z,13.04
2023-04-16T20:26:05.998Z,12.98
2023-04-16T20:28:33.718Z,12.90
2023-04-16T20:31:01.450Z,12.83
2023-04-16T20:33:29.214Z,12.80
2023-04-16T20:35:57.196Z,12.78
2023-04-16T20:38:25.081Z,12.73
2023-04-16T20:41:06.227Z,12.70
2023-04-16T20:43:38.372Z,12.71
2023-04-16T20:46:06.291Z,12.69
2023-04-16T20:48:34.014Z,12.65
2023-04-16T20:51:02.808Z,12.60
2023-04-16T20:53:31.442Z,12.52
2023-04-16T20:56:01.065Z,12.43
2023-04-16T20:58:28.880Z,12.36
2023-04-16T21:00:57.548Z,12.35
2023-04-16T21:03:25.779Z,12.30
2023-04-16T21:05:54.511Z,12.28
2023-04-16T21:08:22.643Z,12.26
2023-04-16T21:10:50.952Z,12.23
2023-04-16T21:13:20.727Z,12.24
2023-04-16T21:15:48.579Z,12.20
2023-04-16T21:18:17.023Z,12.19
2023-04-16T21:20:44.773Z,12.21
2023-04-16T21:23:12.559Z,12.18
2023-04-16T21:25:40.229Z,12.18
2023-04-16T21:28:07.930Z,12.15
2023-04-16T21:30:38.258Z,12.09
2023-04-16T21:33:06.613Z,12.05
2023-04-16T21:35:34.617Z,11.98
2023-04-16T21:38:02.315Z,11.94
2023-04-16T21:40:30.022Z,11.92
2023-04-16T21:42:57.657Z,11.93
2023-04-16T21:45:25.362Z,11.91
2023-04-16T21:47:54.474Z,11.87
2023-04-16T21:50:22.232Z,11.83
2023-04-16T21:52:49.909Z,11.79
2023-04-16T21:55:17.716Z,11.79
2023-04-16T21:57:45.386Z,11.82
2023-04-16T22:00:14.356Z,11.83
2023-04-16T22:02:43.032Z,11.82
2023-04-16T22:05:12.491Z,11.84
2023-04-16T22:07:40.558Z,11.78
2023-04-16T22:10:09.871Z,11.75
2023-04-16T22:12:39.823Z,11.77
2023-04-16T22:15:09.160Z,11.77
2023-04-16T22:17:36.977Z,11.73
2023-04-16T22:20:08.527Z,11.69
2023-04-16T22:22:37.639Z,11.65
2023-04-16T22:25:05.966Z,11.64
2023-04-16T22:27:33.960Z,11.63
2023-04-16T22:30:01.950Z,11.65
2023-04-16T22:32:30.937Z,11.64
2023-04-16T22:34:58.718Z,11.65
2023-04-16T22:37:26.575Z,11.63
2023-04-16T22:39:55.780Z,11.63
2023-04-16T22:42:24.201Z,11.65
2023-04-16T22:44:51.983Z,11.64
2023-04-16T22:47:19.747Z,11.65
2023-04-16T22:49:47.687Z,11.64
2023-04-16T22:52:15.419Z,11.62
2023-04-16T22:54:43.048Z,11.57
2023-04-16T22:57:12.107Z,11.55
2023-04-16T22:59:39.808Z,11.48
2023-04-16T23:02:07.539Z,11.58
2023-04-16T23:04:35.397Z,11.59
2023-04-16T23:07:03.222Z,11.62
2023-04-16T23:09:30.996Z,11.61
2023-04-16T23:11:58.743Z,11.57
2023-04-16T23:14:27.862Z,11.57
2023-04-16T23:16:55.576Z,11.53
2023-04-16T23:19:23.319Z,11.52
2023-04-16T23:21:51.011Z,11.53
2023-04-16T23:24:18.712Z,11.50
2023-04-16T23:26:46.447Z,11.52
2023-04-16T23:29:14.173Z,11.53
2023-04-16T23:31:43.242Z,11.53
2023-04-16T23:34:11.348Z,11.50
2023-04-16T23:36:39.248Z,11.52
2023-04-16T23:39:06.923Z,11.52
2023-04-16T23:41:34.615Z,11.51
2023-04-16T23:44:02.397Z,11.49
2023-04-16T23:46:30.131Z,11.51
2023-04-16T23:48:59.302Z,11.51
2023-04-16T23:51:27.009Z,11.51
2023-04-16T23:53:54.662Z,11.49
2023-04-16T23:56:22.380Z,11.48
2023-04-16T23:58:50.066Z,11.45
